createdAt,value
2019-02-06T00:00:04.745Z,40.95
2019-02-06T00:01:04.724Z,40.75
2019-02-06T00:02:04.698Z,40.75
2019-02-06T00:03:04.706Z,40.85
2019-02-06T00:04:04.679Z,41.05
2019-02-06T00:05:13.916Z,41.05
2019-02-06T00:06:05.702Z,41.35
2019-02-06T00:07:04.653Z,41.15
2019-02-06T00:08:04.666Z,41.15
2019-02-06T00:09:04.528Z,41.25
2019-02-06T00:10:04.596Z,41.25
2019-02-06T00:11:04.591Z,41.05
2019-02-06T00:12:04.582Z,41.25
2019-02-06T00:13:04.591Z,41.35
2019-02-06T00:14:04.562Z,41.45
2019-02-06T00:15:04.553Z,41.15
2019-02-06T00:16:04.572Z,41.15
2019-02-06T00:17:04.557Z,41.35
2019-02-06T00:18:04.609Z,41.15
2019-02-06T00:19:04.520Z,41.47
2019-02-06T00:20:04.510Z,41.35
2019-02-06T00:21:04.484Z,41.35
2019-02-06T00:22:04.478Z,41.35
2019-02-06T00:23:04.458Z,41.05
2019-02-06T00:24:04.504Z,41.25
2019-02-06T00:25:04.440Z,41.35
2019-02-06T00:26:04.440Z,41.15
2019-02-06T00:27:04.428Z,41.15
2019-02-06T00:28:04.418Z,41.35
2019-02-06T00:29:04.406Z,41.85
2019-02-06T00:30:04.412Z,41.25
2019-02-06T00:31:04.370Z,41.75
2019-02-06T00:32:04.364Z,41.45
2019-02-06T00:33:04.348Z,41.25
2019-02-06T00:34:04.338Z,41.35
2019-02-06T00:35:04.356Z,41.75
2019-02-06T00:36:04.323Z,41.45
2019-02-06T00:37:04.315Z,41.55
2019-02-06T00:38:05.497Z,41.96
2019-02-06T00:39:04.293Z,41.65
2019-02-06T00:40:04.302Z,41.65
2019-02-06T00:41:04.339Z,41.97
2019-02-06T00:42:04.253Z,41.65
2019-02-06T00:43:04.232Z,40.87
2019-02-06T00:44:04.227Z,40.95
2019-02-06T00:45:04.217Z,40.75
2019-02-06T00:46:04.134Z,40.95
2019-02-06T00:47:04.254Z,40.95
2019-02-06T00:48:04.204Z,40.75
2019-02-06T00:49:04.193Z,40.85
2019-02-06T00:50:04.167Z,40.95
2019-02-06T00:51:04.157Z,40.87
2019-02-06T00:52:04.151Z,40.75
2019-02-06T00:53:04.257Z,41.15
2019-02-06T00:54:04.127Z,41.05
2019-02-06T00:55:04.113Z,41.17
2019-02-06T00:56:04.097Z,41.57
2019-02-06T00:57:04.091Z,40.95
2019-02-06T00:58:04.074Z,40.87
2019-02-06T00:59:04.107Z,40.85
2019-02-06T01:00:03.971Z,40.97
2019-02-06T01:01:04.070Z,40.97
2019-02-06T01:02:04.073Z,40.97
2019-02-06T01:03:04.043Z,40.67
2019-02-06T01:04:04.094Z,40.87
2019-02-06T01:05:04.022Z,40.67
2019-02-06T01:06:04.008Z,40.47
2019-02-06T01:07:03.981Z,41.07
2019-02-06T01:08:03.981Z,40.97
2019-02-06T01:09:03.964Z,40.47
2019-02-06T01:10:03.988Z,40.67
2019-02-06T01:11:03.940Z,40.57
2019-02-06T01:12:03.932Z,40.67
2019-02-06T01:13:03.916Z,40.57
2019-02-06T01:14:03.917Z,40.57
2019-02-06T01:15:03.919Z,40.67
2019-02-06T01:16:03.914Z,40.67
2019-02-06T01:17:03.867Z,40.97
2019-02-06T01:18:03.869Z,40.65
2019-02-06T01:19:03.849Z,40.97
2019-02-06T01:20:03.847Z,40.77
2019-02-06T01:21:03.861Z,40.77
2019-02-06T01:22:03.827Z,40.57
2019-02-06T01:23:03.815Z,40.77
2019-02-06T01:24:03.802Z,40.67
2019-02-06T01:25:03.798Z,40.77
2019-02-06T01:26:03.782Z,40.67
2019-02-06T01:27:03.836Z,40.67
2019-02-06T01:28:03.744Z,40.67
2019-02-06T01:29:03.737Z,40.87
2019-02-06T01:30:03.746Z,40.67
2019-02-06T01:31:03.718Z,40.87
2019-02-06T01:32:03.778Z,40.77
2019-02-06T01:33:03.728Z,40.97
2019-02-06T01:34:03.692Z,40.87
2019-02-06T01:35:03.681Z,40.57
2019-02-06T01:36:03.668Z,40.97
2019-02-06T01:37:03.668Z,40.47
2019-02-06T01:38:03.703Z,40.37
2019-02-06T01:39:03.631Z,40.65
2019-02-06T01:40:03.632Z,40.57
2019-02-06T01:41:03.608Z,40.57
2019-02-06T01:42:03.597Z,40.37
2019-02-06T01:43:03.627Z,40.06
2019-02-06T01:44:03.590Z,39.97
2019-02-06T01:45:03.572Z,40.26
2019-02-06T01:46:03.569Z,40.06
2019-02-06T01:47:03.549Z,39.56
2019-02-06T01:48:03.539Z,39.76
2019-02-06T01:49:03.551Z,39.76
2019-02-06T01:50:03.506Z,39.56
2019-02-06T01:51:03.498Z,39.76
2019-02-06T01:52:03.503Z,40.17
2019-02-06T01:53:03.485Z,39.06
2019-02-06T01:54:03.510Z,39.06
2019-02-06T01:55:03.469Z,39.06
2019-02-06T01:56:03.443Z,39.16
2019-02-06T01:57:03.438Z,39.16
2019-02-06T01:58:03.434Z,39.06
2019-02-06T01:59:03.422Z,39.06
2019-02-06T02:00:03.427Z,39.76
2019-02-06T02:01:03.392Z,39.78
2019-02-06T02:02:03.298Z,39.66
2019-02-06T02:03:03.408Z,39.47
2019-02-06T02:04:03.407Z,40.08
2019-02-06T02:05:03.359Z,40.37
2019-02-06T02:06:03.346Z,40.47
2019-02-06T02:07:03.332Z,40.37
2019-02-06T02:08:03.325Z,40.67
2019-02-06T02:09:03.336Z,40.39
2019-02-06T02:10:03.307Z,40.47
2019-02-06T02:11:03.295Z,40.37
2019-02-06T02:12:03.276Z,40.37
2019-02-06T02:13:03.281Z,40.47
2019-02-06T02:14:03.294Z,40.06
2019-02-06T02:15:03.244Z,40.08
2019-02-06T02:16:03.238Z,39.97
2019-02-06T02:17:03.226Z,39.36
2019-02-06T02:18:03.215Z,39.76
2019-02-06T02:19:03.213Z,39.66
2019-02-06T02:20:03.209Z,39.28
2019-02-06T02:21:03.179Z,39.56
2019-02-06T02:22:03.175Z,39.76
2019-02-06T02:23:03.158Z,39.66
2019-02-06T02:24:03.184Z,39.56
2019-02-06T02:25:03.171Z,39.56
2019-02-06T02:26:03.054Z,39.78
2019-02-06T02:27:03.114Z,39.66
2019-02-06T02:28:03.098Z,39.66
2019-02-06T02:29:03.091Z,39.47
2019-02-06T02:30:03.022Z,39.76
2019-02-06T02:31:03.084Z,39.78
2019-02-06T02:32:03.056Z,39.66
2019-02-06T02:33:03.055Z,39.58
2019-02-06T02:34:03.039Z,39.69
2019-02-06T02:35:03.100Z,39.88
2019-02-06T02:36:14.388Z,39.88
2019-02-06T02:37:04.004Z,39.76
2019-02-06T02:38:02.982Z,39.86
2019-02-06T02:39:02.990Z,39.97
2019-02-06T02:40:02.969Z,39.08
2019-02-06T02:41:02.987Z,39.18
2019-02-06T02:42:02.945Z,38.98
2019-02-06T02:43:02.966Z,39.66
2019-02-06T02:44:02.928Z,39.69
2019-02-06T02:45:02.922Z,39.08
2019-02-06T02:46:02.942Z,39.16
2019-02-06T02:47:02.883Z,39.08
2019-02-06T02:48:02.973Z,39.38
2019-02-06T02:49:02.897Z,39.08
2019-02-06T02:50:02.873Z,39.38
2019-02-06T02:51:02.880Z,39.18
2019-02-06T02:52:02.860Z,39.26
2019-02-06T02:53:02.862Z,39.28
2019-02-06T02:54:02.852Z,39.28
2019-02-06T02:55:02.814Z,39.38
2019-02-06T02:56:02.808Z,39.36
2019-02-06T02:57:02.809Z,39.36
2019-02-06T02:58:02.774Z,39.38
2019-02-06T02:59:02.797Z,39.28
2019-02-06T03:00:02.765Z,39.38
2019-02-06T03:01:02.773Z,39.38
2019-02-06T03:02:02.804Z,39.26
2019-02-06T03:03:02.739Z,38.88
2019-02-06T03:04:02.740Z,39.18
2019-02-06T03:05:02.699Z,39.36
2019-02-06T03:06:02.693Z,39.38
2019-02-06T03:07:02.689Z,39.26
2019-02-06T03:08:02.694Z,39.16
2019-02-06T03:09:02.650Z,39.48
2019-02-06T03:10:02.639Z,39.36
2019-02-06T03:11:02.629Z,39.26
2019-02-06T03:12:02.621Z,39.38
2019-02-06T03:13:02.650Z,39.47
2019-02-06T03:14:02.521Z,39.28
2019-02-06T03:15:02.587Z,38.66
2019-02-06T03:16:02.579Z,39.08
2019-02-06T03:17:03.358Z,39.38
2019-02-06T03:18:02.469Z,39.08
2019-02-06T03:19:02.590Z,38.78
2019-02-06T03:20:02.542Z,38.78
2019-02-06T03:21:02.533Z,38.88
2019-02-06T03:22:02.512Z,38.46
2019-02-06T03:23:02.499Z,38.88
2019-02-06T03:24:02.494Z,38.78
2019-02-06T03:25:02.512Z,38.98
2019-02-06T03:26:02.467Z,38.46
2019-02-06T03:27:02.455Z,39.18
2019-02-06T03:28:02.458Z,38.88
2019-02-06T03:29:02.460Z,38.88
2019-02-06T03:30:02.450Z,38.68
2019-02-06T03:31:02.409Z,38.38
2019-02-06T03:32:02.420Z,38.58
2019-02-06T03:33:02.392Z,38.98
2019-02-06T03:34:05.022Z,38.88
2019-02-06T03:35:02.376Z,38.68
2019-02-06T03:36:02.367Z,38.78
2019-02-06T03:37:02.347Z,38.88
2019-02-06T03:38:02.364Z,38.58
2019-02-06T03:39:02.326Z,38.58
2019-02-06T03:40:02.342Z,38.48
2019-02-06T03:41:02.318Z,38.58
2019-02-06T03:42:02.313Z,38.48
2019-02-06T03:43:02.309Z,38.38
2019-02-06T03:44:02.269Z,38.38
2019-02-06T03:45:02.303Z,38.48
2019-02-06T03:46:02.244Z,38.78
2019-02-06T03:47:02.246Z,38.38
2019-02-06T03:48:02.234Z,38.68
2019-02-06T03:49:02.224Z,38.78
2019-02-06T03:50:02.207Z,38.58
2019-02-06T03:51:02.225Z,38.58
2019-02-06T03:52:02.196Z,38.68
2019-02-06T03:53:02.192Z,38.28
2019-02-06T03:54:02.199Z,38.68
2019-02-06T03:55:02.177Z,38.68
2019-02-06T03:56:02.201Z,38.58
2019-02-06T03:57:02.147Z,38.48
2019-02-06T03:58:02.138Z,38.58
2019-02-06T03:59:02.132Z,38.58
2019-02-06T04:00:02.131Z,38.88
2019-02-06T04:01:02.115Z,38.88
2019-02-06T04:02:02.137Z,38.78
2019-02-06T04:03:02.088Z,38.58
2019-02-06T04:04:02.075Z,38.48
2019-02-06T04:05:02.065Z,38.28
2019-02-06T04:06:02.064Z,38.28
2019-02-06T04:07:02.047Z,38.38
2019-02-06T04:08:02.081Z,38.28
2019-02-06T04:09:02.003Z,38.48
2019-02-06T04:10:01.997Z,37.98
2019-02-06T04:11:01.984Z,38.28
2019-02-06T04:12:01.965Z,38.28
2019-02-06T04:13:01.955Z,37.98
2019-02-06T04:14:01.981Z,37.98
2019-02-06T04:15:01.941Z,38.18
2019-02-06T04:16:01.937Z,38.18
2019-02-06T04:17:01.907Z,37.87
2019-02-06T04:18:01.899Z,37.98
2019-02-06T04:19:01.954Z,37.98
2019-02-06T04:20:01.878Z,38.18
2019-02-06T04:21:01.866Z,37.87
2019-02-06T04:22:01.868Z,38.48
2019-02-06T04:23:01.859Z,37.98
2019-02-06T04:24:01.843Z,38.58
2019-02-06T04:25:01.894Z,38.07
2019-02-06T04:26:01.819Z,38.48
2019-02-06T04:27:01.811Z,38.38
2019-02-06T04:28:01.804Z,38.18
2019-02-06T04:29:01.801Z,38.28
2019-02-06T04:30:01.775Z,37.87
2019-02-06T04:31:01.807Z,38.07
2019-02-06T04:32:01.752Z,37.98
2019-02-06T04:33:01.745Z,38.18
2019-02-06T04:34:01.726Z,37.57
2019-02-06T04:35:01.734Z,37.77
2019-02-06T04:36:01.727Z,38.07
2019-02-06T04:37:06.807Z,37.47
2019-02-06T04:38:02.699Z,37.89
2019-02-06T04:39:01.683Z,37.77
2019-02-06T04:40:01.666Z,38.28
2019-02-06T04:41:01.644Z,38.07
2019-02-06T04:42:01.664Z,37.27
2019-02-06T04:43:01.628Z,37.27
2019-02-06T04:44:01.663Z,37.07
2019-02-06T04:45:01.626Z,37.07
2019-02-06T04:46:01.606Z,37.47
2019-02-06T04:47:01.724Z,37.27
2019-02-06T04:48:01.580Z,36.87
2019-02-06T04:49:01.569Z,37.17
2019-02-06T04:50:01.619Z,37.37
2019-02-06T04:51:01.566Z,37.27
2019-02-06T04:52:01.551Z,37.37
2019-02-06T04:53:01.559Z,37.17
2019-02-06T04:54:01.537Z,37.39
2019-02-06T04:55:01.514Z,37.37
2019-02-06T04:56:01.550Z,37.27
2019-02-06T04:57:01.494Z,37.17
2019-02-06T04:58:01.487Z,36.97
2019-02-06T04:59:01.478Z,37.17
2019-02-06T05:00:01.488Z,37.47
2019-02-06T05:01:01.453Z,37.07
2019-02-06T05:02:01.467Z,37.17
2019-02-06T05:03:01.449Z,36.97
2019-02-06T05:04:01.418Z,36.97
2019-02-06T05:05:01.414Z,36.87
2019-02-06T05:06:01.399Z,37.07
2019-02-06T05:07:01.416Z,36.87
2019-02-06T05:08:01.368Z,37.07
2019-02-06T05:09:01.352Z,37.17
2019-02-06T05:10:01.348Z,36.97
2019-02-06T05:11:01.237Z,36.99
2019-02-06T05:12:01.307Z,37.47
2019-02-06T05:13:01.342Z,37.37
2019-02-06T05:14:01.295Z,37.27
2019-02-06T05:15:01.320Z,37.59
2019-02-06T05:16:01.296Z,37.27
2019-02-06T05:17:01.261Z,36.97
2019-02-06T05:18:01.265Z,37.57
2019-02-06T05:19:01.288Z,37.57
2019-02-06T05:20:01.234Z,37.59
2019-02-06T05:21:01.249Z,37.17
2019-02-06T05:22:01.205Z,37.69
2019-02-06T05:23:01.191Z,37.47
2019-02-06T05:24:01.197Z,37.79
2019-02-06T05:25:01.203Z,37.57
2019-02-06T05:26:01.158Z,37.67
2019-02-06T05:27:01.182Z,37.57
2019-02-06T05:28:01.173Z,37.77
2019-02-06T05:29:01.175Z,37.87
2019-02-06T05:30:01.170Z,37.47
2019-02-06T05:31:01.194Z,37.47
2019-02-06T05:32:01.115Z,36.89
2019-02-06T05:33:01.115Z,37.87
2019-02-06T05:34:01.076Z,37.87
2019-02-06T05:35:01.073Z,37.39
2019-02-06T05:36:01.044Z,37.27
2019-02-06T05:37:01.078Z,37.27
2019-02-06T05:38:01.049Z,36.89
2019-02-06T05:39:01.131Z,37.27
2019-02-06T05:40:01.010Z,37.47
2019-02-06T05:41:01.002Z,37.07
2019-02-06T05:42:00.992Z,36.99
2019-02-06T05:43:01.064Z,37.07
2019-02-06T05:44:00.979Z,37.08
2019-02-06T05:45:00.946Z,36.79
2019-02-06T05:46:00.935Z,36.89
2019-02-06T05:47:00.947Z,37.08
2019-02-06T05:48:00.971Z,36.79
2019-02-06T05:49:00.922Z,36.89
2019-02-06T05:50:00.923Z,37.08
2019-02-06T05:51:00.900Z,36.97
2019-02-06T05:52:00.905Z,37.08
2019-02-06T05:53:00.885Z,36.69
2019-02-06T05:54:00.883Z,36.89
2019-02-06T05:55:04.257Z,37.19
2019-02-06T05:56:00.878Z,36.79
2019-02-06T05:57:00.823Z,37.29
2019-02-06T05:58:00.814Z,36.97
2019-02-06T05:59:00.822Z,37.39
2019-02-06T06:00:00.700Z,37.08
2019-02-06T06:01:00.912Z,36.87
2019-02-06T06:02:00.838Z,36.99
2019-02-06T06:03:00.679Z,36.89
2019-02-06T06:04:00.676Z,36.79
2019-02-06T06:05:00.738Z,36.89
2019-02-06T06:06:00.735Z,37.29
2019-02-06T06:07:00.760Z,37.29
2019-02-06T06:08:00.754Z,36.99
2019-02-06T06:09:00.695Z,36.89
2019-02-06T06:10:00.681Z,36.89
2019-02-06T06:11:00.681Z,37.29
2019-02-06T06:12:00.667Z,36.89
2019-02-06T06:13:00.655Z,36.89
2019-02-06T06:14:00.690Z,37.29
2019-02-06T06:15:00.767Z,36.89
2019-02-06T06:16:00.636Z,37.29
2019-02-06T06:17:00.620Z,36.89
2019-02-06T06:18:00.609Z,36.99
2019-02-06T06:19:00.602Z,36.79
2019-02-06T06:20:00.632Z,36.38
2019-02-06T06:21:00.577Z,36.79
2019-02-06T06:22:00.575Z,36.89
2019-02-06T06:23:00.592Z,36.29
2019-02-06T06:24:00.526Z,36.99
2019-02-06T06:25:00.544Z,36.58
2019-02-06T06:26:00.571Z,36.58
2019-02-06T06:27:00.514Z,36.36
2019-02-06T06:28:00.506Z,36.58
2019-02-06T06:29:00.476Z,36.29
2019-02-06T06:30:00.501Z,36.89
2019-02-06T06:31:00.469Z,36.69
2019-02-06T06:32:00.464Z,36.57
2019-02-06T06:33:00.453Z,36.38
2019-02-06T06:34:00.455Z,36.89
2019-02-06T06:35:00.468Z,36.69
2019-02-06T06:36:00.407Z,36.89
2019-02-06T06:37:00.423Z,36.58
2019-02-06T06:38:02.714Z,36.69
2019-02-06T06:39:00.271Z,36.58
2019-02-06T06:40:00.283Z,36.79
2019-02-06T06:41:00.405Z,36.57
2019-02-06T06:42:00.378Z,36.38
2019-02-06T06:43:00.242Z,36.49
2019-02-06T06:44:00.242Z,36.79
2019-02-06T06:45:00.307Z,36.79
2019-02-06T06:46:00.347Z,36.79
2019-02-06T06:47:00.288Z,36.79
2019-02-06T06:48:00.297Z,36.38
2019-02-06T06:49:00.273Z,36.69
2019-02-06T06:50:00.367Z,36.58
2019-02-06T06:51:00.296Z,36.58
2019-02-06T06:52:00.267Z,36.58
2019-02-06T06:53:00.228Z,36.47
2019-02-06T06:54:00.251Z,36.79
2019-02-06T06:55:00.385Z,36.57
2019-02-06T06:56:00.182Z,36.58
2019-02-06T06:57:00.186Z,36.58
2019-02-06T06:58:00.061Z,36.79
2019-02-06T06:59:00.067Z,36.89
2019-02-06T07:00:00.130Z,35.98
2019-02-06T07:01:00.101Z,36.58
2019-02-06T07:02:00.036Z,36.27
2019-02-06T07:03:00.008Z,36.29
2019-02-06T07:04:00.012Z,36.29
2019-02-06T07:04:59.994Z,36.16
2019-02-06T07:05:59.976Z,35.97
2019-02-06T07:07:00.023Z,36.57
2019-02-06T07:08:09.038Z,36.87
2019-02-06T07:09:00.951Z,36.36
2019-02-06T07:09:59.977Z,36.79
2019-02-06T07:10:59.923Z,36.89
2019-02-06T07:11:59.931Z,36.27
2019-02-06T07:12:59.965Z,36.36
2019-02-06T07:13:59.899Z,36.97
2019-02-06T07:14:59.904Z,37.17
2019-02-06T07:16:00.451Z,37.07
2019-02-06T07:16:59.872Z,37.98
2019-02-06T07:17:59.901Z,37.27
2019-02-06T07:18:59.854Z,38.78
2019-02-06T07:19:59.852Z,38.28
2019-02-06T07:21:01.616Z,38.58
2019-02-06T07:21:59.810Z,38.18
2019-02-06T07:22:59.813Z,37.77
2019-02-06T07:23:59.842Z,37.87
2019-02-06T07:24:59.788Z,37.67
2019-02-06T07:25:59.766Z,37.98
2019-02-06T07:26:59.769Z,38.58
2019-02-06T07:27:59.756Z,38.38
2019-02-06T07:28:59.791Z,38.28
2019-02-06T07:29:59.732Z,38.18
2019-02-06T07:30:59.728Z,38.28
2019-02-06T07:31:59.709Z,38.18
2019-02-06T07:32:59.707Z,38.28
2019-02-06T07:33:59.669Z,37.87
2019-02-06T07:34:59.860Z,38.16
2019-02-06T07:35:59.772Z,37.87
2019-02-06T07:36:59.651Z,38.18
2019-02-06T07:37:59.654Z,38.16
2019-02-06T07:38:59.643Z,38.07
2019-02-06T07:39:59.617Z,37.67
2019-02-06T07:40:59.759Z,37.87
2019-02-06T07:41:59.707Z,37.87
2019-02-06T07:42:59.600Z,37.87
2019-02-06T07:43:59.685Z,38.18
2019-02-06T07:44:59.570Z,38.36
2019-02-06T07:45:59.597Z,38.28
2019-02-06T07:46:59.539Z,38.16
2019-02-06T07:47:59.558Z,38.16
2019-02-06T07:48:59.558Z,38.18
2019-02-06T07:49:59.510Z,37.96
2019-02-06T07:50:59.506Z,37.98
2019-02-06T07:51:59.497Z,37.96
2019-02-06T07:52:59.604Z,37.85
2019-02-06T07:53:59.576Z,37.96
2019-02-06T07:54:59.588Z,37.46
2019-02-06T07:55:59.540Z,37.15
2019-02-06T07:56:59.427Z,37.34
2019-02-06T07:57:59.493Z,37.34
2019-02-06T07:58:59.534Z,37.13
2019-02-06T07:59:59.458Z,36.72
2019-02-06T08:00:59.385Z,36.82
2019-02-06T08:01:59.397Z,36.52
2019-02-06T08:02:59.370Z,36.32
2019-02-06T08:03:59.357Z,36.10
2019-02-06T08:04:59.344Z,36.30
2019-02-06T08:05:59.353Z,36.38
2019-02-06T08:06:59.429Z,36.18
2019-02-06T08:07:59.310Z,35.58
2019-02-06T08:08:59.321Z,35.18
2019-02-06T08:09:59.326Z,35.66
2019-02-06T08:10:59.272Z,35.16
2019-02-06T08:11:59.367Z,35.26
2019-02-06T08:12:59.359Z,35.66
2019-02-06T08:13:59.247Z,35.56
2019-02-06T08:14:59.234Z,35.55
2019-02-06T08:15:59.370Z,35.85
2019-02-06T08:16:59.211Z,36.15
2019-02-06T08:17:59.306Z,36.15
2019-02-06T08:18:59.291Z,36.13
2019-02-06T08:19:59.284Z,36.53
2019-02-06T08:20:59.272Z,35.83
2019-02-06T08:21:59.299Z,35.93
2019-02-06T08:22:59.154Z,36.33
2019-02-06T08:23:59.147Z,36.63
2019-02-06T08:24:59.129Z,36.83
2019-02-06T08:25:59.126Z,36.71
2019-02-06T08:26:59.105Z,36.83
2019-02-06T08:27:59.112Z,37.03
2019-02-06T08:28:59.086Z,36.93
2019-02-06T08:29:59.081Z,36.93
2019-02-06T08:30:59.059Z,36.83
2019-02-06T08:31:59.157Z,36.03
2019-02-06T08:32:59.063Z,36.43
2019-02-06T08:33:59.028Z,35.33
2019-02-06T08:34:59.021Z,35.05
2019-02-06T08:35:59.110Z,35.13
2019-02-06T08:36:59.122Z,35.25
2019-02-06T15:32:35.445Z,23.33
2019-02-06T15:33:36.127Z,23.03
2019-02-06T15:34:35.469Z,23.63
2019-02-06T15:35:35.517Z,23.23
2019-02-06T15:36:35.453Z,23.43
2019-02-06T15:37:35.346Z,23.93
2019-02-06T15:38:35.431Z,23.73
2019-02-06T15:39:35.430Z,23.83
2019-02-06T15:40:35.419Z,23.63
2019-02-06T15:41:38.049Z,24.43
2019-02-06T15:42:35.381Z,24.02
2019-02-06T15:43:35.293Z,24.03
2019-02-06T15:44:38.137Z,23.92
2019-02-06T15:45:35.357Z,24.12
2019-02-06T15:46:35.346Z,23.92
2019-02-06T15:47:35.261Z,23.22
2019-02-06T15:48:35.332Z,23.92
2019-02-06T15:49:35.209Z,24.12
2019-02-06T15:50:35.307Z,24.12
2019-02-06T15:51:35.302Z,24.11
2019-02-06T15:52:35.312Z,24.32
2019-02-06T15:53:35.273Z,23.82
2019-02-06T15:54:35.282Z,24.02
2019-02-06T15:55:35.282Z,24.30
2019-02-06T15:56:35.247Z,23.92
2019-02-06T15:57:35.295Z,24.22
2019-02-06T15:58:35.244Z,24.30
2019-02-06T15:59:35.205Z,23.80
2019-02-06T16:00:35.188Z,23.91
2019-02-06T16:01:35.073Z,24.51
2019-02-06T16:02:35.700Z,25.41
2019-02-06T16:03:35.054Z,24.71
2019-02-06T16:04:35.203Z,24.11
2019-02-06T16:05:35.135Z,24.51
2019-02-06T16:06:35.123Z,24.41
2019-02-06T16:07:35.047Z,24.21
2019-02-06T16:08:35.107Z,23.99
2019-02-06T16:09:35.094Z,23.99
2019-02-06T16:10:35.151Z,23.99
2019-02-06T16:11:41.896Z,23.90
2019-02-06T16:12:36.055Z,24.19
2019-02-06T16:13:35.036Z,23.90
2019-02-06T16:14:35.034Z,24.29
2019-02-06T16:15:35.027Z,24.08
2019-02-06T16:16:35.047Z,24.08
2019-02-06T16:17:34.995Z,23.68
2019-02-06T16:18:35.018Z,23.49
2019-02-06T16:19:34.990Z,23.99
2019-02-06T16:20:34.972Z,24.19
2019-02-06T16:21:34.956Z,24.08
2019-02-06T16:22:35.060Z,24.58
2019-02-06T16:23:34.930Z,23.79
2019-02-06T16:24:34.930Z,23.88
2019-02-06T16:25:34.908Z,23.68
2019-02-06T16:26:35.006Z,23.28
2019-02-06T16:27:34.888Z,23.19
2019-02-06T16:28:34.897Z,23.99
2019-02-06T16:29:34.876Z,24.08
2019-02-06T16:30:34.951Z,23.49
2019-02-06T16:31:34.746Z,24.29
2019-02-06T16:32:34.819Z,22.99
2019-02-06T16:33:34.849Z,23.58
2019-02-06T16:34:34.807Z,23.68
2019-02-06T16:35:34.708Z,23.68
2019-02-06T16:36:34.791Z,23.79
2019-02-06T16:37:34.780Z,23.68
2019-02-06T16:38:34.852Z,23.79
2019-02-06T16:39:35.014Z,23.88
2019-02-06T16:40:34.741Z,24.08
2019-02-06T16:41:34.740Z,23.79
2019-02-06T16:42:34.717Z,23.38
2019-02-06T16:43:34.757Z,23.79
2019-02-06T16:44:34.696Z,24.18
2019-02-06T16:45:34.693Z,23.88
2019-02-06T16:46:34.674Z,23.79
2019-02-06T16:47:44.782Z,23.99
2019-02-06T16:48:35.680Z,24.08
2019-02-06T16:49:34.643Z,23.99
2019-02-06T16:50:34.701Z,23.49
2019-02-06T16:51:34.621Z,24.17
2019-02-06T16:52:34.604Z,23.77
2019-02-06T16:53:34.603Z,24.18
2019-02-06T16:54:34.580Z,23.97
2019-02-06T16:55:34.610Z,24.27
2019-02-06T16:56:34.567Z,23.68
2019-02-06T16:57:34.561Z,23.57
2019-02-06T16:58:35.187Z,24.07
2019-02-06T16:59:34.538Z,24.27
2019-02-06T17:00:34.548Z,24.07
2019-02-06T17:01:34.512Z,23.47
2019-02-06T17:02:34.572Z,24.17
2019-02-06T17:03:34.394Z,24.47
2019-02-06T17:04:34.478Z,24.47
2019-02-06T17:05:34.471Z,24.17
2019-02-06T17:06:34.533Z,23.97
2019-02-06T17:07:34.505Z,25.07
2019-02-06T17:08:34.435Z,23.68
2019-02-06T17:09:34.470Z,23.97
2019-02-06T17:10:34.448Z,23.87
2019-02-06T17:11:34.400Z,23.68
2019-02-06T17:12:34.282Z,24.56
2019-02-06T17:13:34.389Z,25.07
2019-02-06T17:14:34.428Z,25.16
2019-02-06T17:15:34.387Z,24.47
2019-02-06T17:16:34.342Z,23.96
2019-02-06T17:17:34.336Z,24.36
2019-02-06T17:18:34.330Z,24.46
2019-02-06T17:19:34.384Z,24.25
2019-02-06T17:20:34.347Z,24.25
2019-02-06T17:21:35.153Z,24.65
2019-02-06T17:22:34.276Z,23.85
2019-02-06T17:23:34.271Z,24.25
2019-02-06T17:24:34.412Z,24.45
2019-02-06T17:25:34.235Z,24.85
2019-02-06T17:26:34.276Z,24.45
2019-02-06T17:27:34.215Z,24.95
2019-02-06T17:28:34.204Z,24.84
2019-02-06T17:29:34.206Z,23.94
2019-02-06T17:30:34.214Z,24.74
2019-02-06T17:31:34.207Z,25.23
2019-02-06T17:32:34.223Z,25.04
2019-02-06T17:33:34.148Z,24.54
2019-02-06T17:34:34.160Z,24.15
2019-02-06T17:35:34.140Z,24.63
2019-02-06T17:36:34.138Z,24.93
2019-02-06T17:37:34.137Z,25.43
2019-02-06T17:38:34.146Z,25.13
2019-02-06T17:39:34.143Z,25.34
2019-02-06T17:40:34.108Z,24.84
2019-02-06T17:41:34.063Z,25.63
2019-02-06T17:42:34.069Z,24.84
2019-02-06T17:43:34.067Z,24.84
2019-02-06T17:44:34.066Z,25.04
2019-02-06T17:45:34.091Z,25.43
2019-02-06T17:46:34.015Z,25.63
2019-02-06T17:47:34.033Z,24.84
2019-02-06T17:48:34.006Z,24.95
2019-02-06T17:49:33.992Z,25.24
2019-02-06T17:50:33.982Z,24.65
2019-02-06T17:51:34.002Z,24.45
2019-02-06T17:52:33.950Z,24.75
2019-02-06T17:53:34.701Z,24.85
2019-02-06T17:54:33.947Z,23.45
2019-02-06T17:55:33.950Z,24.46
2019-02-06T17:56:33.943Z,24.86
2019-02-06T17:57:33.947Z,24.56
2019-02-06T17:58:33.874Z,24.26
2019-02-06T17:59:33.865Z,24.56
2019-02-06T18:00:33.883Z,23.47
2019-02-06T18:01:33.850Z,23.47
2019-02-06T18:02:33.882Z,23.47
2019-02-06T18:03:33.877Z,23.47
2019-02-06T18:04:33.856Z,23.68
2019-02-06T18:05:33.817Z,23.97
2019-02-06T18:06:33.813Z,24.07
2019-02-06T18:07:33.872Z,23.77
2019-02-06T18:08:33.850Z,23.18
2019-02-06T18:09:33.813Z,24.17
2019-02-06T18:10:33.778Z,23.76
2019-02-06T18:11:33.740Z,23.68
2019-02-06T18:12:33.764Z,23.77
2019-02-06T18:13:33.747Z,23.95
2019-02-06T18:14:33.716Z,23.34
2019-02-06T18:15:33.765Z,23.24
2019-02-06T18:16:33.705Z,23.03
2019-02-06T18:17:33.688Z,23.53
2019-02-06T18:18:33.676Z,23.23
2019-02-06T18:19:34.667Z,23.03
2019-02-06T18:20:33.669Z,23.43
2019-02-06T18:21:33.693Z,23.03
2019-02-06T18:22:33.646Z,23.24
2019-02-06T18:23:33.619Z,22.94
2019-02-06T18:24:33.612Z,23.04
2019-02-06T18:25:33.625Z,23.14
2019-02-06T18:26:33.631Z,23.64
2019-02-06T18:27:33.623Z,23.54
2019-02-06T18:28:33.581Z,23.45
2019-02-06T18:29:33.627Z,23.35
2019-02-06T18:30:33.554Z,22.74
2019-02-06T18:31:33.580Z,23.55
2019-02-06T18:32:33.532Z,23.24
2019-02-06T18:33:33.520Z,23.35
2019-02-06T18:34:33.588Z,23.45
2019-02-06T18:35:33.501Z,23.05
2019-02-06T18:36:33.485Z,23.35
2019-02-06T18:37:33.526Z,23.05
2019-02-06T18:38:33.494Z,22.85
2019-02-06T18:39:33.447Z,23.05
2019-02-06T18:40:33.450Z,23.46
2019-02-06T18:41:33.493Z,23.15
2019-02-06T18:42:42.578Z,23.85
2019-02-06T18:43:34.489Z,23.45
2019-02-06T18:44:33.395Z,23.55
2019-02-06T18:45:33.386Z,23.05
2019-02-06T18:46:33.394Z,23.66
2019-02-06T18:47:33.366Z,23.45
2019-02-06T18:48:33.385Z,23.66
2019-02-06T18:49:33.385Z,23.07
2019-02-06T18:50:33.343Z,23.35
2019-02-06T18:51:33.322Z,23.16
2019-02-06T18:52:33.304Z,23.45
2019-02-06T18:53:33.313Z,23.55
2019-02-06T18:54:33.297Z,23.95
2019-02-06T18:55:33.343Z,23.07
2019-02-06T18:56:33.295Z,23.35
2019-02-06T18:57:33.260Z,23.05
2019-02-06T18:58:33.254Z,23.07
2019-02-06T18:59:33.254Z,22.95
2019-02-06T19:00:33.706Z,23.55
2019-02-06T19:01:33.277Z,23.05
2019-02-06T19:02:33.208Z,23.16
2019-02-06T19:03:33.191Z,23.45
2019-02-06T19:04:33.189Z,23.55
2019-02-06T19:05:33.179Z,23.16
2019-02-06T19:06:33.225Z,23.36
2019-02-06T19:07:33.165Z,23.66
2019-02-06T19:08:33.153Z,23.46
2019-02-06T19:09:33.131Z,23.35
2019-02-06T19:10:33.124Z,23.45
2019-02-06T19:11:33.676Z,23.25
2019-02-06T19:12:33.151Z,23.46
2019-02-06T19:13:33.080Z,23.05
2019-02-06T19:14:33.106Z,23.55
2019-02-06T19:15:33.065Z,23.35
2019-02-06T19:16:33.059Z,23.35
2019-02-06T19:17:33.044Z,23.35
2019-02-06T19:18:33.098Z,23.35
2019-02-06T19:19:33.027Z,23.26
2019-02-06T19:20:35.609Z,22.96
2019-02-06T19:21:32.996Z,23.36
2019-02-06T19:22:33.145Z,23.16
2019-02-06T19:23:33.079Z,23.36
2019-02-06T19:24:32.978Z,24.16
2019-02-06T19:25:32.950Z,23.07
2019-02-06T19:26:33.668Z,23.26
2019-02-06T19:27:32.996Z,23.16
2019-02-06T19:28:32.935Z,23.16
2019-02-06T19:29:32.991Z,23.07
2019-02-06T19:30:32.936Z,22.97
2019-02-06T19:31:32.891Z,23.07
2019-02-06T19:32:32.919Z,23.07
2019-02-06T19:33:33.672Z,23.18
2019-02-06T19:34:32.864Z,22.97
2019-02-06T19:35:32.872Z,23.18
2019-02-06T19:36:33.785Z,23.07
2019-02-06T19:37:35.131Z,23.37
2019-02-06T19:38:32.806Z,23.97
2019-02-06T19:39:32.814Z,23.27
2019-02-06T19:40:32.819Z,23.37
2019-02-06T19:41:32.776Z,23.77
2019-02-06T19:42:32.771Z,23.27
2019-02-06T19:43:32.748Z,23.68
2019-02-06T19:44:32.745Z,23.77
2019-02-06T19:45:32.766Z,23.68
2019-02-06T19:46:32.747Z,23.27